Mariner A — 9HVA7 — position and weather

sailwx.info

Track history (hours):
 
Tides and Currents Weather Stations Pressure Air Temp Water Temp Dewpoint Dewpoint Depression Visibility Wind Speed Wind Dir Waves Ship Positions

Mariner A

Last reported at 2015-Apr-19 22:24 UTC. Time now 2015-Apr-21 06:35 UTC.
Position N 34°28' E 034°41'.

Length 176 m; draft 9.3 m.

Type: Tanker. MMSI: 215817000.

Date/timePositionNaut miles runAvg speedWind from/ knotsBaromVisibWave heightAir tempDewpointWater temp
2015-Apr-19 22:24N 34°28' E 034°41'1112.8
2015-Apr-19 21:33N 34°17' E 034°38'1312.8
2015-Apr-19 20:33N 34°05' E 034°34'1312.9
2015-Apr-19 19:33N 33°52' E 034°30'1312.9
2015-Apr-19 18:33N 33°40' E 034°27'1713.1
2015-Apr-19 17:17N 33°23' E 034°22'1013.2
2015-Apr-19 16:33N 33°14' E 034°19'1212.3
2015-Apr-19 15:33N 33°02' E 034°19'1212.4
2015-Apr-19 14:33N 32°58' E 034°33'1312.8
2015-Apr-19 13:32N 32°56' E 034°49'1212.0
2015-Apr-19 12:33N 32°51' E 035°01'  
2015-Apr-15 10:15N 34°19' E 033°21'1113.5
2015-Apr-15 09:26N 34°29' E 033°15'1 1.6
2015-Apr-15 08:33N 34°30' E 033°15'2 2.2
2015-Apr-15 07:33N 34°29' E 033°17'5 2.2
2015-Apr-15 05:12N 34°25' E 033°21'0 0.6
2015-Apr-15 04:33N 34°25' E 033°21'1 0.5
2015-Apr-15 03:33N 34°26' E 033°21'1 0.4
2015-Apr-15 01:08N 34°26' E 033°23'0 0.5
2015-Apr-15 00:33N 34°26' E 033°23'1 0.5
2015-Apr-14 23:21N 34°27' E 033°23'0 0.6
2015-Apr-14 22:32N 34°27' E 033°24'1 0.3
2015-Apr-14 20:18N 34°27' E 033°24'0 0.2
2015-Apr-14 19:29N 34°28' E 033°24'0 0.2
2015-Apr-14 18:18N 34°28' E 033°24'1 0.3
2015-Apr-14 14:33N 34°29' E 033°24'6 1.9
2015-Apr-14 11:25N 34°27' E 033°17'1 0.3
2015-Apr-14 09:18N 34°28' E 033°16'4 3.7
2015-Apr-14 08:07N 34°32' E 033°19'6 9.1
2015-Apr-14 07:30N 34°29' E 033°13'1213.0
2015-Apr-14 06:33N 34°26' E 032°59'1313.4
2015-Apr-14 05:33N 34°26' E 032°42'  
Track history (hours):
 
Tides and Currents Weather Stations Pressure Air Temp Water Temp Dewpoint Dewpoint Depression Visibility Wind Speed Wind Dir Waves Ship Positions

Mariner A

Last reported at 2015-Apr-19 22:24 UTC. Time now 2015-Apr-21 06:35 UTC.
Position N 34°28' E 034°41'.

Length 176 m; draft 9.3 m.

Type: Tanker. MMSI: 215817000.

Date/timePositionNaut miles runAvg speedWind from/ knotsBaromVisibWave heightAir tempDewpointWater temp
2015-Apr-19 22:24N 34°28' E 034°41'1112.8
2015-Apr-19 21:33N 34°17' E 034°38'1312.8
2015-Apr-19 20:33N 34°05' E 034°34'1312.9
2015-Apr-19 19:33N 33°52' E 034°30'1312.9
2015-Apr-19 18:33N 33°40' E 034°27'1713.1
2015-Apr-19 17:17N 33°23' E 034°22'1013.2
2015-Apr-19 16:33N 33°14' E 034°19'1212.3
2015-Apr-19 15:33N 33°02' E 034°19'1212.4
2015-Apr-19 14:33N 32°58' E 034°33'1312.8
2015-Apr-19 13:32N 32°56' E 034°49'1212.0
2015-Apr-19 12:33N 32°51' E 035°01'  
2015-Apr-15 10:15N 34°19' E 033°21'1113.5
2015-Apr-15 09:26N 34°29' E 033°15'1 1.6
2015-Apr-15 08:33N 34°30' E 033°15'2 2.2
2015-Apr-15 07:33N 34°29' E 033°17'5 2.2
2015-Apr-15 05:12N 34°25' E 033°21'0 0.6
2015-Apr-15 04:33N 34°25' E 033°21'1 0.5
2015-Apr-15 03:33N 34°26' E 033°21'1 0.4
2015-Apr-15 01:08N 34°26' E 033°23'0 0.5
2015-Apr-15 00:33N 34°26' E 033°23'1 0.5
2015-Apr-14 23:21N 34°27' E 033°23'0 0.6
2015-Apr-14 22:32N 34°27' E 033°24'1 0.3
2015-Apr-14 20:18N 34°27' E 033°24'0 0.2
2015-Apr-14 19:29N 34°28' E 033°24'0 0.2
2015-Apr-14 18:18N 34°28' E 033°24'1 0.3
2015-Apr-14 14:33N 34°29' E 033°24'6 1.9
2015-Apr-14 11:25N 34°27' E 033°17'1 0.3
2015-Apr-14 09:18N 34°28' E 033°16'4 3.7
2015-Apr-14 08:07N 34°32' E 033°19'6 9.1
2015-Apr-14 07:30N 34°29' E 033°13'1213.0
2015-Apr-14 06:33N 34°26' E 032°59'1313.4
2015-Apr-14 05:33N 34°26' E 032°42'  

Dump ship's entire track history